createdAt,value
2018-08-19T00:02:07.619Z,5.10
2018-08-19T00:04:41.545Z,5.43
2018-08-19T00:07:15.756Z,5.40
2018-08-19T00:09:49.884Z,5.90
2018-08-19T00:12:35.176Z,5.37
2018-08-19T00:15:09.379Z,5.30
2018-08-19T00:17:43.592Z,5.60
2018-08-19T00:20:17.772Z,5.13
2018-08-19T00:22:51.469Z,5.90
2018-08-19T00:25:32.255Z,5.60
2018-08-19T00:28:07.952Z,5.80
2018-08-19T00:30:41.666Z,5.47
2018-08-19T00:33:15.667Z,5.00
2018-08-19T00:35:49.487Z,5.67
2018-08-19T00:38:23.655Z,5.43
2018-08-19T00:40:57.787Z,5.33
2018-08-19T00:43:31.997Z,5.10
2018-08-19T00:46:17.851Z,5.63
2018-08-19T00:48:51.737Z,5.10
2018-08-19T00:51:26.029Z,4.53
2018-08-19T00:54:00.210Z,5.13
2018-08-19T00:56:35.576Z,4.93
2018-08-19T00:59:10.272Z,5.20
2018-08-19T01:01:44.896Z,5.00
2018-08-19T01:04:18.814Z,5.00
2018-08-19T01:06:53.951Z,5.37
2018-08-19T01:09:30.729Z,5.27
2018-08-19T01:12:05.072Z,5.33
2018-08-19T01:14:39.290Z,5.03
2018-08-19T01:17:13.122Z,5.23
2018-08-19T01:19:47.363Z,5.30
2018-08-19T01:22:21.283Z,5.30
2018-08-19T01:24:55.378Z,5.20
2018-08-19T01:27:29.221Z,5.00
2018-08-19T01:30:06.698Z,5.03
2018-08-19T01:32:40.802Z,5.17
2018-08-19T01:35:15.002Z,5.17
2018-08-19T01:37:49.042Z,4.83
2018-08-19T01:40:23.140Z,5.20
2018-08-19T01:42:56.970Z,4.93
2018-08-19T01:45:31.130Z,5.20
2018-08-19T01:48:05.303Z,4.90
2018-08-19T01:50:39.057Z,5.20
2018-08-19T01:53:13.131Z,5.00
2018-08-19T01:55:47.271Z,5.60
2018-08-19T01:58:21.350Z,5.50
2018-08-19T02:00:55.168Z,5.73
2018-08-19T02:03:29.588Z,5.53
2018-08-19T02:06:03.561Z,5.40
2018-08-19T02:08:37.506Z,5.50
2018-08-19T02:11:24.122Z,6.23
2018-08-19T02:13:57.968Z,5.80
2018-08-19T02:16:31.772Z,5.77
2018-08-19T02:19:05.608Z,6.20
2018-08-19T02:21:41.217Z,6.10
2018-08-19T02:24:15.585Z,6.10
2018-08-19T02:26:56.432Z,5.93
2018-08-19T02:29:36.979Z,6.40
2018-08-19T02:32:10.873Z,6.27
2018-08-19T02:34:45.658Z,6.70
2018-08-19T02:37:19.441Z,6.80
2018-08-19T02:39:53.482Z,6.30
2018-08-19T02:42:30.810Z,6.50
2018-08-19T02:45:05.693Z,6.87
2018-08-19T02:47:39.780Z,7.00
2018-08-19T02:50:14.330Z,7.33
2018-08-19T02:52:48.242Z,7.07
2018-08-19T02:55:24.575Z,7.40
2018-08-19T02:58:04.095Z,7.60
2018-08-19T03:00:38.071Z,8.27
2018-08-19T03:03:11.921Z,7.93
2018-08-19T03:05:50.964Z,7.30
2018-08-19T03:08:24.945Z,7.53
2018-08-19T03:10:59.085Z,7.60
2018-08-19T03:13:33.730Z,7.80
2018-08-19T03:16:07.672Z,7.53
2018-08-19T03:18:42.331Z,7.83
2018-08-19T03:21:17.072Z,7.60
2018-08-19T03:23:52.367Z,8.07
2018-08-19T03:26:27.841Z,7.73
2018-08-19T03:29:06.366Z,7.40
2018-08-19T03:31:40.594Z,7.97
2018-08-19T03:34:14.705Z,7.87
2018-08-19T03:36:48.995Z,8.43
2018-08-19T03:39:23.890Z,8.73
2018-08-19T03:41:58.066Z,8.07
2018-08-19T03:44:31.926Z,8.57
2018-08-19T03:47:12.472Z,7.93
2018-08-19T03:49:47.032Z,8.30
2018-08-19T03:52:20.993Z,8.53
2018-08-19T03:54:54.871Z,8.40
2018-08-19T03:57:28.993Z,9.07
2018-08-19T04:00:02.781Z,8.87
2018-08-19T04:02:36.796Z,8.63
2018-08-19T04:05:10.636Z,8.80
2018-08-19T04:07:44.865Z,9.07
2018-08-19T04:10:18.886Z,9.17
2018-08-19T04:12:52.870Z,9.80
2018-08-19T04:15:26.641Z,8.93
2018-08-19T04:18:00.613Z,9.93
2018-08-19T04:20:34.311Z,8.80
2018-08-19T04:23:08.331Z,9.37
2018-08-19T04:25:42.303Z,9.23
2018-08-19T04:28:20.624Z,8.43
2018-08-19T04:30:55.441Z,8.70
2018-08-19T04:33:31.778Z,9.40
2018-08-19T04:36:05.655Z,9.50
2018-08-19T04:38:40.090Z,10.43
2018-08-19T04:41:14.475Z,9.93
2018-08-19T04:43:48.598Z,10.03
2018-08-19T04:46:22.630Z,9.80
2018-08-19T04:48:56.616Z,10.77
2018-08-19T04:51:30.541Z,9.93
2018-08-19T04:54:05.337Z,10.13
2018-08-19T04:56:39.455Z,10.33
2018-08-19T04:59:13.415Z,10.23
2018-08-19T05:01:47.359Z,9.93
2018-08-19T05:04:21.251Z,10.53
2018-08-19T05:06:55.152Z,9.97
2018-08-19T05:09:29.710Z,9.77
2018-08-19T05:12:03.707Z,10.40
2018-08-19T05:14:37.491Z,9.87
2018-08-19T05:17:11.460Z,9.63
2018-08-19T05:19:45.280Z,8.90
2018-08-19T05:22:20.040Z,8.03
2018-08-19T05:24:54.280Z,7.13
2018-08-19T05:27:28.297Z,7.53
2018-08-19T05:30:02.160Z,7.50
2018-08-19T05:32:36.515Z,7.60
2018-08-19T05:35:10.835Z,7.57
2018-08-19T05:37:45.580Z,7.73
2018-08-19T05:40:19.437Z,7.67
2018-08-19T05:42:53.312Z,7.33
2018-08-19T05:45:27.184Z,7.53
2018-08-19T05:48:09.830Z,7.83
2018-08-19T05:50:43.920Z,8.33
2018-08-19T05:53:18.189Z,8.90
2018-08-19T05:55:52.575Z,9.70
2018-08-19T05:58:26.515Z,10.17
2018-08-19T06:01:00.645Z,10.87
2018-08-19T06:03:41.751Z,11.10
2018-08-19T06:06:15.957Z,11.40
2018-08-19T06:08:50.932Z,10.90
2018-08-19T06:11:24.991Z,10.90
2018-08-19T06:13:58.891Z,11.47
2018-08-19T06:16:32.662Z,12.03
2018-08-19T06:19:06.867Z,12.43
2018-08-19T06:21:41.571Z,12.23
2018-08-19T06:24:15.755Z,12.00
2018-08-19T06:26:49.546Z,12.70
2018-08-19T06:29:38.197Z,11.90
2018-08-19T06:32:21.380Z,11.27
2018-08-19T06:34:55.312Z,11.55
2018-08-19T06:37:29.300Z,10.38
2018-08-19T06:40:04.073Z,9.93
2018-08-19T06:42:38.023Z,11.70
2018-08-19T06:45:12.826Z,10.65
2018-08-19T06:47:46.792Z,12.85
2018-08-19T06:50:33.322Z,10.50
2018-08-19T06:53:08.900Z,14.20
2018-08-19T06:55:42.935Z,12.80
2018-08-19T06:58:16.697Z,11.95
2018-08-19T07:00:51.472Z,12.70
2018-08-19T07:03:25.382Z,13.72
2018-08-19T07:06:06.656Z,11.73
2018-08-19T07:08:41.016Z,12.40
2018-08-19T07:11:14.754Z,12.55
2018-08-19T07:13:49.166Z,13.15
2018-08-19T07:16:23.395Z,13.45
2018-08-19T07:18:58.232Z,12.35
2018-08-19T07:21:31.954Z,13.28
2018-08-19T07:24:06.081Z,13.10
2018-08-19T07:26:40.173Z,13.90
2018-08-19T07:29:14.171Z,14.38
2018-08-19T07:31:48.312Z,12.33
2018-08-19T07:34:22.066Z,13.72
2018-08-19T07:36:57.104Z,13.35
2018-08-19T07:39:39.222Z,11.80
2018-08-19T07:42:13.947Z,11.22
2018-08-19T07:44:48.537Z,10.35
2018-08-19T07:47:22.576Z,11.25
2018-08-19T07:49:56.818Z,10.03
2018-08-19T07:52:30.741Z,9.75
2018-08-19T07:55:05.254Z,9.88
2018-08-19T07:57:41.304Z,10.20
2018-08-19T08:00:15.578Z,9.90
2018-08-19T08:02:49.751Z,8.78
2018-08-19T08:05:25.044Z,11.25
2018-08-19T08:07:58.821Z,10.35
2018-08-19T08:10:32.887Z,9.83
2018-08-19T08:13:08.657Z,10.48
2018-08-19T08:15:49.203Z,9.80
2018-08-19T08:18:23.541Z,10.35
2018-08-19T08:21:03.940Z,8.78
2018-08-19T08:23:38.147Z,11.97
2018-08-19T08:26:12.087Z,10.55
2018-08-19T08:28:52.526Z,11.30
2018-08-19T08:31:26.733Z,12.18
2018-08-19T08:34:00.751Z,10.23
2018-08-19T08:36:34.808Z,11.83
2018-08-19T08:39:08.850Z,11.97
2018-08-19T08:41:42.922Z,11.85
2018-08-19T08:44:17.111Z,11.45
2018-08-19T08:46:51.266Z,11.40
2018-08-19T08:49:31.153Z,9.98
2018-08-19T08:52:11.921Z,12.10
2018-08-19T08:55:01.332Z,10.03
2018-08-19T08:57:36.069Z,11.15
2018-08-19T09:00:11.320Z,10.50
2018-08-19T09:02:45.441Z,9.13
2018-08-19T09:05:19.424Z,10.82
2018-08-19T09:07:53.507Z,9.25
2018-08-19T09:10:27.408Z,9.75
2018-08-19T09:13:01.521Z,8.83
2018-08-19T09:15:36.291Z,8.40
2018-08-19T09:18:10.809Z,7.97
2018-08-19T09:20:44.987Z,8.40
2018-08-19T09:23:18.883Z,8.25
2018-08-19T09:25:52.768Z,9.48
2018-08-19T09:28:26.908Z,8.08
2018-08-19T09:31:01.319Z,7.35
2018-08-19T09:33:35.137Z,6.78
2018-08-19T09:36:09.381Z,7.65
2018-08-19T09:38:43.314Z,7.72
2018-08-19T09:41:17.448Z,8.40
2018-08-19T09:43:51.458Z,7.72
2018-08-19T09:46:25.921Z,7.55
2018-08-19T09:48:59.837Z,7.45
2018-08-19T09:51:36.880Z,8.05
2018-08-19T09:54:26.480Z,7.70
2018-08-19T09:57:00.709Z,7.40
2018-08-19T09:59:35.423Z,7.47
2018-08-19T10:02:09.826Z,7.75
2018-08-19T10:04:43.972Z,6.85
2018-08-19T10:07:17.897Z,7.67
2018-08-19T10:09:52.382Z,7.30
2018-08-19T10:12:29.900Z,8.88
2018-08-19T10:15:05.657Z,7.28
2018-08-19T10:17:40.357Z,6.33
2018-08-19T10:20:14.298Z,7.10
2018-08-19T10:22:48.969Z,6.45
2018-08-19T10:25:23.202Z,7.15
2018-08-19T10:27:57.316Z,6.60
2018-08-19T10:30:31.400Z,6.95
2018-08-19T10:33:09.761Z,7.50
2018-08-19T10:35:44.001Z,7.90
2018-08-19T10:38:18.121Z,6.28
2018-08-19T10:41:03.377Z,6.72
2018-08-19T10:43:37.488Z,6.55
2018-08-19T10:46:12.113Z,6.87
2018-08-19T10:48:46.387Z,7.53
2018-08-19T10:51:20.701Z,7.08
2018-08-19T10:53:54.648Z,6.95
2018-08-19T10:56:28.573Z,6.75
2018-08-19T10:59:03.147Z,7.42
2018-08-19T11:01:37.067Z,6.42
2018-08-19T11:04:11.215Z,6.00
2018-08-19T11:06:45.038Z,6.58
2018-08-19T11:09:18.948Z,6.78
2018-08-19T11:11:53.190Z,6.75
2018-08-19T11:14:27.107Z,6.87
2018-08-19T11:17:01.332Z,6.85
2018-08-19T11:19:37.471Z,6.65
2018-08-19T11:22:11.449Z,6.55
2018-08-19T11:24:45.647Z,6.10
2018-08-19T11:27:20.723Z,7.53
2018-08-19T11:29:54.596Z,6.90
2018-08-19T11:32:35.705Z,7.40
2018-08-19T11:35:09.794Z,7.50
2018-08-19T11:37:43.925Z,7.05
2018-08-19T11:40:17.730Z,7.08
2018-08-19T11:42:51.753Z,6.78
2018-08-19T11:45:25.608Z,7.22
2018-08-19T11:48:00.994Z,7.03
2018-08-19T11:50:35.878Z,7.47
2018-08-19T11:53:10.003Z,7.03
2018-08-19T11:55:43.876Z,6.87
2018-08-19T11:58:33.852Z,7.47
2018-08-19T12:01:12.357Z,7.30
2018-08-19T12:03:59.362Z,6.90
2018-08-19T12:06:33.698Z,5.85
2018-08-19T12:09:09.366Z,6.65
2018-08-19T12:11:43.327Z,7.10
2018-08-19T12:14:17.703Z,6.45
2018-08-19T12:16:55.807Z,6.33
2018-08-19T12:19:30.828Z,7.60
2018-08-19T12:22:05.190Z,6.12
2018-08-19T12:24:41.048Z,7.05
2018-08-19T12:27:17.463Z,6.20
2018-08-19T12:30:00.480Z,6.25
2018-08-19T12:32:34.933Z,6.90
2018-08-19T12:35:09.033Z,6.25
2018-08-19T12:37:43.127Z,6.50
2018-08-19T12:40:17.082Z,6.35
2018-08-19T12:42:53.103Z,6.35
2018-08-19T12:45:27.173Z,6.00
2018-08-19T12:48:00.997Z,6.45
2018-08-19T12:50:35.009Z,6.37
2018-08-19T12:53:09.052Z,7.10
2018-08-19T12:55:43.317Z,6.10
2018-08-19T12:58:17.543Z,6.15
2018-08-19T13:00:51.642Z,6.35
2018-08-19T13:03:27.141Z,6.80
2018-08-19T13:06:05.317Z,6.53
2018-08-19T13:08:39.267Z,5.87
2018-08-19T13:11:13.548Z,6.67
2018-08-19T13:13:47.409Z,6.25
2018-08-19T13:16:21.711Z,5.78
2018-08-19T13:18:55.419Z,6.28
2018-08-19T13:21:29.407Z,5.90
2018-08-19T13:24:03.520Z,6.28
2018-08-19T13:26:37.506Z,5.85
2018-08-19T13:29:11.411Z,6.40
2018-08-19T13:31:45.567Z,6.22
2018-08-19T13:34:19.433Z,6.10
2018-08-19T13:36:54.066Z,6.25
2018-08-19T13:39:28.521Z,6.33
2018-08-19T13:44:43.299Z,5.60
2018-08-19T13:47:17.286Z,6.15
2018-08-19T13:49:51.183Z,5.80
2018-08-19T13:52:25.552Z,6.20
2018-08-19T13:55:01.600Z,6.20
2018-08-19T13:57:35.781Z,5.92
2018-08-19T14:00:13.862Z,5.87
2018-08-19T14:02:48.392Z,5.90
2018-08-19T14:05:22.354Z,6.22
2018-08-19T14:07:57.332Z,6.58
2018-08-19T14:10:31.357Z,6.30
2018-08-19T14:13:05.592Z,6.42
2018-08-19T14:15:39.838Z,6.30
2018-08-19T14:18:13.852Z,6.45
2018-08-19T14:20:47.851Z,6.35
2018-08-19T14:23:22.636Z,6.05
2018-08-19T14:25:56.759Z,6.05
2018-08-19T14:28:30.589Z,6.12
2018-08-19T14:31:04.717Z,6.15
2018-08-19T14:33:38.726Z,5.90
2018-08-19T14:36:13.031Z,5.92
2018-08-19T14:38:47.188Z,6.25
2018-08-19T14:41:21.922Z,6.33
2018-08-19T14:44:01.507Z,6.28
2018-08-19T14:46:35.888Z,6.15
2018-08-19T14:49:09.921Z,6.03
2018-08-19T14:51:57.872Z,6.28
2018-08-19T14:54:31.878Z,6.40
2018-08-19T14:57:06.197Z,6.00
2018-08-19T14:59:46.911Z,6.55
2018-08-19T15:02:21.426Z,6.05
2018-08-19T15:04:55.671Z,6.75
2018-08-19T15:07:29.891Z,6.42
2018-08-19T15:10:04.365Z,6.78
2018-08-19T15:12:38.448Z,6.92
2018-08-19T15:15:12.236Z,6.47
2018-08-19T15:17:51.884Z,6.30
2018-08-19T15:20:31.278Z,6.42
2018-08-19T15:23:16.315Z,6.78
2018-08-19T15:25:50.332Z,6.03
2018-08-19T15:28:24.458Z,6.65
2018-08-19T15:30:58.442Z,6.62
2018-08-19T15:33:32.963Z,6.58
2018-08-19T15:36:07.079Z,6.35
2018-08-19T15:38:41.114Z,6.87
2018-08-19T15:41:15.094Z,6.65
2018-08-19T15:43:49.128Z,6.30
2018-08-19T15:46:23.227Z,6.85
2018-08-19T15:48:57.211Z,6.83
2018-08-19T15:51:31.504Z,6.70
2018-08-19T15:54:06.807Z,6.30
2018-08-19T15:56:40.642Z,6.33
2018-08-19T15:59:14.883Z,6.50
2018-08-19T16:01:48.789Z,7.42
2018-08-19T16:04:24.115Z,6.72
2018-08-19T16:06:58.478Z,7.65
2018-08-19T16:09:32.746Z,6.95
2018-08-19T16:12:06.609Z,6.95
2018-08-19T16:14:40.651Z,6.85
2018-08-19T16:17:14.492Z,6.45
2018-08-19T16:19:48.366Z,6.87
2018-08-19T16:22:22.224Z,7.15
2018-08-19T16:24:56.255Z,6.47
2018-08-19T16:27:30.102Z,7.35
2018-08-19T16:30:04.951Z,6.80
2018-08-19T16:32:39.109Z,7.20
2018-08-19T16:35:13.457Z,7.22
2018-08-19T16:37:47.343Z,7.03
2018-08-19T16:40:21.522Z,7.22
2018-08-19T16:42:55.632Z,7.25
2018-08-19T16:45:29.763Z,6.67
2018-08-19T16:48:03.766Z,7.08
2018-08-19T16:50:37.910Z,6.90
2018-08-19T16:53:12.638Z,7.25
2018-08-19T16:55:46.477Z,7.85
2018-08-19T16:58:20.628Z,7.20
2018-08-19T17:00:54.781Z,6.90
2018-08-19T17:03:35.329Z,7.17
2018-08-19T17:06:12.010Z,7.12
2018-08-19T17:08:46.152Z,7.20
2018-08-19T17:11:20.775Z,7.40
2018-08-19T17:13:55.042Z,6.60
2018-08-19T17:16:28.871Z,6.80
2018-08-19T17:19:03.005Z,6.80
2018-08-19T17:21:37.276Z,6.37
2018-08-19T17:24:11.338Z,7.08
2018-08-19T17:26:45.463Z,6.33
2018-08-19T17:29:19.512Z,6.65
2018-08-19T17:31:53.502Z,6.33
2018-08-19T17:34:27.757Z,6.83
2018-08-19T17:37:01.728Z,6.67
2018-08-19T17:39:35.691Z,6.90
2018-08-19T17:42:09.887Z,6.58
2018-08-19T17:44:43.886Z,6.45
2018-08-19T17:47:17.902Z,6.92
2018-08-19T17:49:51.939Z,6.85
2018-08-19T17:52:25.834Z,6.70
2018-08-19T17:54:59.790Z,6.60
2018-08-19T17:57:34.148Z,6.22
2018-08-19T18:00:08.580Z,6.47
2018-08-19T18:02:42.605Z,5.97
2018-08-19T18:05:16.902Z,6.70
2018-08-19T18:07:52.993Z,5.95
2018-08-19T18:10:27.436Z,5.90
2018-08-19T18:13:01.425Z,6.37
2018-08-19T18:15:35.264Z,6.62
2018-08-19T18:18:09.057Z,6.20
2018-08-19T18:20:43.202Z,6.22
2018-08-19T18:23:22.763Z,6.75
2018-08-19T18:25:56.682Z,5.92
2018-08-19T18:28:31.833Z,6.55
2018-08-19T18:31:06.884Z,6.58
2018-08-19T18:33:48.428Z,6.60
2018-08-19T18:36:24.047Z,6.50
2018-08-19T18:38:58.579Z,6.00
2018-08-19T18:41:34.293Z,6.72
2018-08-19T18:44:09.909Z,6.78
2018-08-19T18:46:45.026Z,6.53
2018-08-19T18:49:21.719Z,7.33
2018-08-19T18:51:58.482Z,6.55
2018-08-19T18:54:32.799Z,7.03
2018-08-19T18:57:07.963Z,6.87
2018-08-19T18:59:43.322Z,6.55
2018-08-19T19:02:17.212Z,6.78
2018-08-19T19:04:51.098Z,6.35
2018-08-19T19:07:25.393Z,6.90
2018-08-19T19:09:59.528Z,7.00
2018-08-19T19:12:33.551Z,6.90
2018-08-19T19:15:08.047Z,6.42
2018-08-19T19:17:42.812Z,6.45
2018-08-19T19:20:16.843Z,6.83
2018-08-19T19:22:56.293Z,7.12
2018-08-19T19:25:39.778Z,7.00
2018-08-19T19:28:14.533Z,6.50
2018-08-19T19:30:52.613Z,7.10
2018-08-19T19:33:26.977Z,6.97
2018-08-19T19:36:07.674Z,6.45
2018-08-19T19:38:47.859Z,6.60
2018-08-19T19:41:24.796Z,6.45
2018-08-19T19:44:03.743Z,6.75
2018-08-19T19:46:38.261Z,6.53
2018-08-19T19:49:12.264Z,6.85
2018-08-19T19:51:52.093Z,6.55
2018-08-19T19:54:27.515Z,6.92
2018-08-19T19:57:01.687Z,6.95
2018-08-19T19:59:35.786Z,6.80
2018-08-19T20:02:16.407Z,7.12
2018-08-19T20:04:50.729Z,6.95
2018-08-19T20:07:24.890Z,7.17
2018-08-19T20:09:59.314Z,7.00
2018-08-19T20:12:33.704Z,8.38
2018-08-19T20:15:07.747Z,7.47
2018-08-19T20:17:41.664Z,7.80
2018-08-19T20:20:15.913Z,7.33
2018-08-19T20:22:50.003Z,6.97
2018-08-19T20:25:24.130Z,7.17
2018-08-19T20:28:03.362Z,8.03
2018-08-19T20:30:38.284Z,7.58
2018-08-19T20:33:18.868Z,7.55
2018-08-19T20:35:53.728Z,7.80
2018-08-19T20:38:27.869Z,8.00
2018-08-19T20:41:01.777Z,7.70
2018-08-19T20:43:35.893Z,8.48
2018-08-19T20:46:09.842Z,8.05
2018-08-19T20:48:46.581Z,7.90
2018-08-19T20:51:20.577Z,7.55
2018-08-19T20:53:54.654Z,8.48
2018-08-19T20:56:28.628Z,8.45
2018-08-19T20:59:02.625Z,8.65
2018-08-19T21:01:36.712Z,9.08
2018-08-19T21:04:10.804Z,9.08
2018-08-19T21:06:45.933Z,8.63
2018-08-19T21:09:20.142Z,7.78
2018-08-19T21:11:54.633Z,7.90
2018-08-19T21:14:29.059Z,7.80
2018-08-19T21:17:05.063Z,7.60
2018-08-19T21:19:39.323Z,7.92
2018-08-19T21:22:13.608Z,7.72
2018-08-19T21:24:47.822Z,7.87
2018-08-19T21:27:21.876Z,7.92
2018-08-19T21:29:55.992Z,7.65
2018-08-19T21:32:29.727Z,8.20
2018-08-19T21:35:04.192Z,8.18
2018-08-19T21:37:38.512Z,8.28
2018-08-19T21:40:12.653Z,7.87
2018-08-19T21:42:50.688Z,7.60
2018-08-19T21:45:24.743Z,8.05
2018-08-19T21:47:58.903Z,8.30
2018-08-19T21:50:32.870Z,7.50
2018-08-19T21:53:09.383Z,8.13
2018-08-19T21:55:44.213Z,8.38
2018-08-19T21:58:18.448Z,8.50
2018-08-19T22:00:56.293Z,8.45
2018-08-19T22:03:36.013Z,9.30
2018-08-19T22:06:10.056Z,7.90
2018-08-19T22:08:44.223Z,8.20
2018-08-19T22:11:18.317Z,8.15
2018-08-19T22:13:52.762Z,8.30
2018-08-19T22:16:26.596Z,8.50
2018-08-19T22:19:00.806Z,8.73
2018-08-19T22:21:34.823Z,8.35
2018-08-19T22:24:08.615Z,8.23
2018-08-19T22:26:42.731Z,8.55
2018-08-19T22:29:20.956Z,8.50
2018-08-19T22:31:55.185Z,8.20
2018-08-19T22:34:29.160Z,8.20
2018-08-19T22:37:03.230Z,8.53
2018-08-19T22:39:37.392Z,8.68
2018-08-19T22:42:11.246Z,8.08
2018-08-19T22:44:45.161Z,8.23
2018-08-19T22:47:19.371Z,8.83
2018-08-19T22:49:53.277Z,8.40
2018-08-19T22:52:27.332Z,8.68
2018-08-19T22:55:01.368Z,9.08
2018-08-19T22:57:35.232Z,8.95
2018-08-19T23:00:09.287Z,8.63
2018-08-19T23:02:43.344Z,8.13
2018-08-19T23:05:17.554Z,9.00
2018-08-19T23:07:51.441Z,8.68
2018-08-19T23:10:25.413Z,8.53
2018-08-19T23:13:02.862Z,8.90
2018-08-19T23:15:37.655Z,8.90
2018-08-19T23:18:11.348Z,8.88
2018-08-19T23:20:45.416Z,8.90
2018-08-19T23:23:19.343Z,9.33
2018-08-19T23:25:53.758Z,8.63
2018-08-19T23:28:27.817Z,8.85
2018-08-19T23:31:01.998Z,9.25
2018-08-19T23:33:36.043Z,9.35
2018-08-19T23:36:10.548Z,8.98
2018-08-19T23:38:44.812Z,8.85
2018-08-19T23:41:19.150Z,8.95
2018-08-19T23:43:53.223Z,9.35
2018-08-19T23:46:27.178Z,10.45
2018-08-19T23:49:01.490Z,10.30
2018-08-19T23:51:35.646Z,9.15
2018-08-19T23:54:09.681Z,9.90
2018-08-19T23:56:44.037Z,11.20
2018-08-19T23:59:26.154Z,11.00
